Time;durP1;ratioP1;P1;durP2;ratioP2;P2;SDS_P1;SDS_P2;PMS_P1;PMS_P2;Temp;Humidity;BMP_temperature;BMP_pressure;BME280_temperature;BME280_humidity;BME280_pressure;Samples;Min_cycle;Max_cycle;Signal;HPM_P1;HPM_P2
2022/09/27 00:02:16;;;;;;;2.12;1.75;;;;;;;;;;615593;231;26571;-68
2022/09/27 00:04:45;;;;;;;1.98;1.77;;;;;;;;;;614124;230;26849;-68
2022/09/27 00:07:13;;;;;;;1.80;1.70;;;;;;;;;;613349;233;26577;-68
2022/09/27 00:09:42;;;;;;;1.62;1.52;;;;;;;;;;614130;230;26888;-68
2022/09/27 00:12:11;;;;;;;1.77;1.67;;;;;;;;;;615885;233;26623;-69
2022/09/27 00:14:40;;;;;;;1.90;1.80;;;;;;;;;;613592;231;26603;-68
2022/09/27 00:17:09;;;;;;;2.08;1.90;;;;;;;;;;615643;230;26786;-68
2022/09/27 00:19:38;;;;;;;1.80;1.70;;;;;;;;;;614488;231;26593;-69
2022/09/27 00:22:06;;;;;;;1.70;1.60;;;;;;;;;;618152;227;27214;-61
2022/09/27 00:24:35;;;;;;;1.70;1.60;;;;;;;;;;614348;234;26592;-61
2022/09/27 00:27:04;;;;;;;1.70;1.60;;;;;;;;;;614588;231;27241;-61
2022/09/27 00:29:33;;;;;;;2.00;1.80;;;;;;;;;;614301;228;26573;-61
2022/09/27 00:32:02;;;;;;;1.90;1.80;;;;;;;;;;615614;231;26564;-61
2022/09/27 00:34:31;;;;;;;1.92;1.80;;;;;;;;;;615368;231;26609;-61
2022/09/27 00:37:00;;;;;;;1.80;1.70;;;;;;;;;;621357;231;26609;-60
2022/09/27 00:39:29;;;;;;;1.60;1.50;;;;;;;;;;613702;231;26854;-61
2022/09/27 00:41:58;;;;;;;1.80;1.70;;;;;;;;;;614251;234;26598;-59
2022/09/27 00:44:41;;;;;;;1.40;1.30;;;;;;;;;;612444;235;26687;-59
2022/09/27 00:47:11;;;;;;;1.52;1.42;;;;;;;;;;609886;235;26861;-59
2022/09/27 00:49:43;;;;;;;2.42;1.60;;;;;;;;;;612442;233;26847;-66
2022/09/27 00:52:15;;;;;;;1.67;1.58;;;;;;;;;;619757;231;26632;-67
2022/09/27 00:54:44;;;;;;;2.37;1.73;;;;;;;;;;613673;233;26600;-67
2022/09/27 00:57:13;;;;;;;1.65;1.52;;;;;;;;;;613068;234;26919;-67
2022/09/27 00:59:44;;;;;;;1.95;1.52;;;;;;;;;;620792;231;26619;-67
2022/09/27 01:02:12;;;;;;;1.77;1.52;;;;;;;;;;614540;229;26570;-67
2022/09/27 01:04:41;;;;;;;1.70;1.60;;;;;;;;;;614964;231;26809;-67
2022/09/27 01:07:10;;;;;;;1.77;1.50;;;;;;;;;;617453;230;26581;-67
2022/09/27 01:09:39;;;;;;;3.55;1.73;;;;;;;;;;621643;231;26594;-63
2022/09/27 01:12:14;;;;;;;1.45;1.45;;;;;;;;;;616525;231;26589;-63
2022/09/27 01:14:59;;;;;;;1.90;1.80;;;;;;;;;;612863;233;26600;-63
2022/09/27 01:17:44;;;;;;;1.60;1.50;;;;;;;;;;612397;233;26837;-64
2022/09/27 01:20:15;;;;;;;1.55;1.48;;;;;;;;;;607427;231;26612;-63
2022/09/27 01:22:50;;;;;;;1.45;1.40;;;;;;;;;;617691;231;26575;-63
2022/09/27 01:25:19;;;;;;;1.90;1.80;;;;;;;;;;612759;233;26813;-63
2022/09/27 01:27:50;;;;;;;1.60;1.50;;;;;;;;;;611920;231;26781;-64
2022/09/27 01:30:21;;;;;;;2.08;1.70;;;;;;;;;;619512;231;26556;-63
2022/09/27 01:32:51;;;;;;;1.90;1.73;;;;;;;;;;614524;233;26619;-63
2022/09/27 01:35:21;;;;;;;1.73;1.62;;;;;;;;;;612397;231;26566;-63
2022/09/27 01:37:51;;;;;;;1.75;1.65;;;;;;;;;;612769;231;26587;-63
2022/09/27 01:40:23;;;;;;;1.52;1.40;;;;;;;;;;624654;230;26767;-64
2022/09/27 01:42:52;;;;;;;1.80;1.70;;;;;;;;;;621739;230;26641;-64
2022/09/27 01:45:23;;;;;;;1.52;1.42;;;;;;;;;;617775;231;26547;-64
2022/09/27 01:47:52;;;;;;;1.62;1.52;;;;;;;;;;615696;231;26776;-64
2022/09/27 01:50:20;;;;;;;1.60;1.50;;;;;;;;;;619993;231;26589;-64
2022/09/27 01:52:49;;;;;;;1.60;1.50;;;;;;;;;;615429;231;26565;-64
2022/09/27 01:55:18;;;;;;;1.70;1.58;;;;;;;;;;613591;231;26567;-63
2022/09/27 01:57:47;;;;;;;1.75;1.65;;;;;;;;;;614684;231;26559;-64
2022/09/27 02:00:16;;;;;;;1.80;1.70;;;;;;;;;;618576;231;26875;-64
2022/09/27 02:02:55;;;;;;;1.58;1.48;;;;;;;;;;612343;231;26623;-63
2022/09/27 02:05:23;;;;;;;1.80;1.50;;;;;;;;;;619560;231;26630;-63
2022/09/27 02:07:55;;;;;;;1.52;1.42;;;;;;;;;;620504;231;26625;-64
2022/09/27 02:10:22;;;;;;;1.50;1.40;;;;;;;;;;616278;231;26636;-64
2022/09/27 02:12:51;;;;;;;1.80;1.70;;;;;;;;;;616919;231;27157;-64
2022/09/27 02:15:20;;;;;;;1.30;1.30;;;;;;;;;;621142;230;26560;-64
2022/09/27 02:17:54;;;;;;;1.75;1.60;;;;;;;;;;615382;230;26801;-64
2022/09/27 02:20:24;;;;;;;1.50;1.40;;;;;;;;;;615433;233;26579;-63
2022/09/27 02:22:56;;;;;;;1.62;1.42;;;;;;;;;;620759;230;26827;-63
2022/09/27 02:25:27;;;;;;;1.37;1.30;;;;;;;;;;621260;231;26814;-64
2022/09/27 02:28:00;;;;;;;1.50;1.42;;;;;;;;;;621014;230;26625;-64
2022/09/27 02:30:29;;;;;;;1.40;1.40;;;;;;;;;;621013;231;26799;-63
2022/09/27 02:32:58;;;;;;;1.52;1.42;;;;;;;;;;620725;231;26589;-63
2022/09/27 02:35:26;;;;;;;1.35;1.30;;;;;;;;;;617502;231;26830;-64
2022/09/27 02:37:55;;;;;;;1.40;1.40;;;;;;;;;;618580;226;26580;-63
2022/09/27 02:40:25;;;;;;;1.50;1.40;;;;;;;;;;619529;231;26808;-63
2022/09/27 02:42:53;;;;;;;1.30;1.30;;;;;;;;;;621063;231;26598;-64
2022/09/27 02:45:23;;;;;;;1.60;1.50;;;;;;;;;;615759;231;26611;-63
2022/09/27 02:47:55;;;;;;;1.50;1.40;;;;;;;;;;620337;227;26619;-63
2022/09/27 02:50:27;;;;;;;1.60;1.50;;;;;;;;;;612196;235;26862;-64
2022/09/27 02:53:06;;;;;;;1.45;1.35;;;;;;;;;;611857;234;26843;-64
2022/09/27 02:55:41;;;;;;;1.73;1.40;;;;;;;;;;618738;231;26623;-64
2022/09/27 02:58:09;;;;;;;2.12;1.33;;;;;;;;;;619974;231;26843;-65
2022/09/27 03:00:39;;;;;;;1.40;1.30;;;;;;;;;;621886;231;26577;-64
2022/09/27 03:03:09;;;;;;;1.35;1.30;;;;;;;;;;620429;231;26667;-64
2022/09/27 03:05:38;;;;;;;1.30;1.30;;;;;;;;;;622539;231;26623;-64
2022/09/27 03:08:06;;;;;;;1.50;1.40;;;;;;;;;;623434;231;26560;-64
2022/09/27 03:10:35;;;;;;;1.40;1.40;;;;;;;;;;623610;231;27184;-64
2022/09/27 03:13:04;;;;;;;1.17;1.17;;;;;;;;;;623683;231;26588;-65
2022/09/27 03:15:33;;;;;;;1.12;1.12;;;;;;;;;;623735;226;26912;-64
2022/09/27 03:18:02;;;;;;;1.55;1.45;;;;;;;;;;614415;231;26618;-64
2022/09/27 03:20:32;;;;;;;1.50;1.40;;;;;;;;;;612404;234;26859;-65
2022/09/27 03:23:01;;;;;;;1.30;1.30;;;;;;;;;;614103;232;26654;-64
2022/09/27 03:25:29;;;;;;;1.23;1.23;;;;;;;;;;613650;234;26805;-64
2022/09/27 03:27:58;;;;;;;1.40;1.40;;;;;;;;;;613363;234;26534;-65
2022/09/27 03:30:27;;;;;;;1.50;1.40;;;;;;;;;;613253;234;26818;-65
2022/09/27 03:32:56;;;;;;;1.50;1.40;;;;;;;;;;613069;234;26612;-65
2022/09/27 03:35:25;;;;;;;1.67;1.58;;;;;;;;;;613020;233;26622;-65
2022/09/27 03:37:54;;;;;;;1.75;1.58;;;;;;;;;;613076;234;26623;-65
2022/09/27 03:40:22;;;;;;;1.45;1.35;;;;;;;;;;612780;234;26558;-65
2022/09/27 03:42:51;;;;;;;1.98;1.50;;;;;;;;;;612745;234;26575;-65
2022/09/27 03:45:20;;;;;;;1.60;1.50;;;;;;;;;;612758;234;26567;-65
2022/09/27 03:47:49;;;;;;;1.40;1.30;;;;;;;;;;612762;234;26897;-65
2022/09/27 03:50:18;;;;;;;1.85;1.75;;;;;;;;;;612706;234;26564;-65
2022/09/27 03:52:47;;;;;;;1.60;1.50;;;;;;;;;;612984;233;26803;-65
2022/09/27 03:55:16;;;;;;;1.98;1.87;;;;;;;;;;615928;233;26835;-65
2022/09/27 03:57:45;;;;;;;1.87;1.77;;;;;;;;;;615775;233;26671;-65
2022/09/27 04:00:13;;;;;;;1.60;1.50;;;;;;;;;;616613;228;26897;-65
2022/09/27 04:02:42;;;;;;;1.75;1.65;;;;;;;;;;616385;231;26573;-65
2022/09/27 04:05:11;;;;;;;1.80;1.70;;;;;;;;;;622736;231;26964;-65
2022/09/27 04:07:40;;;;;;;1.87;1.77;;;;;;;;;;619894;226;26572;-65
2022/09/27 04:10:09;;;;;;;1.77;1.67;;;;;;;;;;612226;235;26581;-65
2022/09/27 04:12:38;;;;;;;1.62;1.52;;;;;;;;;;615432;234;26773;-65
2022/09/27 04:15:07;;;;;;;1.90;1.80;;;;;;;;;;621332;230;26633;-65
2022/09/27 04:17:36;;;;;;;1.90;1.80;;;;;;;;;;617032;226;27136;-65
2022/09/27 04:20:05;;;;;;;1.98;1.87;;;;;;;;;;612985;228;26612;-65
2022/09/27 04:22:34;;;;;;;2.40;1.40;;;;;;;;;;617383;231;26628;-64
2022/09/27 04:25:03;;;;;;;2.67;1.70;;;;;;;;;;615783;231;26789;-65
2022/09/27 04:27:32;;;;;;;2.72;2.03;;;;;;;;;;616318;231;26590;-65
2022/09/27 04:30:01;;;;;;;1.37;1.37;;;;;;;;;;612390;234;26870;-63
2022/09/27 04:32:29;;;;;;;2.05;1.67;;;;;;;;;;613727;231;26530;-65
2022/09/27 04:37:33;;;;;;;1.50;1.40;;;;;;;;;;616508;233;26617;-64
2022/09/27 04:40:02;;;;;;;1.83;1.70;;;;;;;;;;613246;234;26563;-62
2022/09/27 04:42:31;;;;;;;5.43;2.15;;;;;;;;;;614963;231;26805;-64
2022/09/27 04:44:59;;;;;;;1.98;1.87;;;;;;;;;;616192;233;26528;-62
2022/09/27 04:47:28;;;;;;;2.80;1.70;;;;;;;;;;617305;230;26962;-64
2022/09/27 04:49:57;;;;;;;4.43;1.83;;;;;;;;;;615253;231;26563;-64
2022/09/27 04:52:26;;;;;;;2.70;1.77;;;;;;;;;;613063;230;26546;-64
2022/09/27 04:54:55;;;;;;;1.62;1.52;;;;;;;;;;613250;231;26601;-64
2022/09/27 04:57:24;;;;;;;1.80;1.70;;;;;;;;;;613296;231;26568;-64
2022/09/27 04:59:53;;;;;;;1.40;1.40;;;;;;;;;;617340;230;26765;-63
2022/09/27 05:02:21;;;;;;;1.70;1.70;;;;;;;;;;616048;230;26650;-64
2022/09/27 05:04:50;;;;;;;2.40;1.95;;;;;;;;;;616591;230;26827;-63
2022/09/27 05:07:19;;;;;;;1.95;1.77;;;;;;;;;;617369;231;26565;-64
2022/09/27 05:09:48;;;;;;;1.75;1.65;;;;;;;;;;619216;227;26648;-64
2022/09/27 05:12:17;;;;;;;3.75;1.70;;;;;;;;;;616097;231;26782;-63
2022/09/27 05:14:46;;;;;;;1.45;1.35;;;;;;;;;;615943;231;26634;-64
2022/09/27 05:17:17;;;;;;;1.83;1.73;;;;;;;;;;618848;231;26861;-64
2022/09/27 05:19:44;;;;;;;1.62;1.52;;;;;;;;;;615109;234;26553;-63
2022/09/27 05:22:13;;;;;;;1.90;1.58;;;;;;;;;;614972;231;26571;-64
2022/09/27 05:24:42;;;;;;;1.65;1.55;;;;;;;;;;615498;231;26779;-64
2022/09/27 05:27:11;;;;;;;1.30;1.30;;;;;;;;;;620307;231;26579;-64
2022/09/27 05:32:33;;;;;;;1.42;1.42;;;;;;;;;;615390;234;26777;-64
2022/09/27 05:40:53;;;;;;;1.23;1.20;;;;;;;;;;615547;234;26780;-63
2022/09/27 05:43:25;;;;;;;1.40;1.37;;;;;;;;;;615553;234;26617;-64
2022/09/27 05:46:00;;;;;;;1.58;1.48;;;;;;;;;;617148;231;26646;-64
2022/09/27 05:48:42;;;;;;;1.62;1.60;;;;;;;;;;616844;233;26628;-64
2022/09/27 05:51:18;;;;;;;1.33;1.33;;;;;;;;;;616469;233;26603;-64
2022/09/27 05:53:56;;;;;;;1.40;1.30;;;;;;;;;;616409;233;26829;-64
2022/09/27 05:56:33;;;;;;;1.62;1.52;;;;;;;;;;616226;233;26584;-64
2022/09/27 05:59:05;;;;;;;1.67;1.60;;;;;;;;;;616269;233;26621;-64
2022/09/27 06:01:46;;;;;;;1.70;1.58;;;;;;;;;;616218;233;26599;-64
2022/09/27 06:04:20;;;;;;;1.35;1.35;;;;;;;;;;615926;233;26650;-64
2022/09/27 06:06:59;;;;;;;1.33;1.23;;;;;;;;;;615864;232;26595;-64
2022/09/27 06:09:35;;;;;;;2.08;1.67;;;;;;;;;;615949;233;27283;-64
2022/09/27 06:12:13;;;;;;;1.67;1.60;;;;;;;;;;615945;227;26645;-64
2022/09/27 06:15:09;;;;;;;1.42;1.33;;;;;;;;;;615963;233;26702;-64
2022/09/27 06:17:45;;;;;;;1.62;1.52;;;;;;;;;;615942;233;26625;-64
2022/09/27 06:20:41;;;;;;;2.03;1.60;;;;;;;;;;615800;233;27249;-64
2022/09/27 06:23:19;;;;;;;1.83;1.73;;;;;;;;;;615636;234;26630;-64
2022/09/27 06:25:53;;;;;;;1.17;1.17;;;;;;;;;;617322;231;26811;-63
2022/09/27 06:28:35;;;;;;;1.35;1.30;;;;;;;;;;623772;231;26775;-64
2022/09/27 06:31:14;;;;;;;1.73;1.62;;;;;;;;;;623729;231;26609;-64
2022/09/27 06:33:49;;;;;;;1.65;1.48;;;;;;;;;;623678;231;26594;-65
2022/09/27 06:36:27;;;;;;;1.75;1.65;;;;;;;;;;623754;231;26582;-65
2022/09/27 06:39:03;;;;;;;1.70;1.60;;;;;;;;;;623788;231;26566;-63
2022/09/27 06:42:01;;;;;;;1.65;1.50;;;;;;;;;;616304;231;26769;-64
2022/09/27 06:47:43;;;;;;;1.62;1.52;;;;;;;;;;621134;231;26555;-62
2022/09/27 06:50:15;;;;;;;7.32;1.95;;;;;;;;;;621141;227;26671;-58
2022/09/27 06:52:45;;;;;;;5.15;2.30;;;;;;;;;;617319;231;26770;-59
2022/09/27 06:55:14;;;;;;;4.03;1.75;;;;;;;;;;615821;230;26588;-59
2022/09/27 07:00:23;;;;;;;1.58;1.48;;;;;;;;;;616928;230;26673;-59
2022/09/27 07:02:52;;;;;;;3.33;1.85;;;;;;;;;;616138;230;26858;-59
2022/09/27 07:05:21;;;;;;;3.35;1.70;;;;;;;;;;618147;230;26577;-59
2022/09/27 07:07:52;;;;;;;2.08;1.70;;;;;;;;;;617698;230;26798;-59
2022/09/27 07:10:19;;;;;;;2.00;1.50;;;;;;;;;;615459;231;26597;-59
2022/09/27 07:12:48;;;;;;;4.32;2.17;;;;;;;;;;615662;231;26849;-59
2022/09/27 07:15:17;;;;;;;4.75;2.00;;;;;;;;;;615266;231;26609;-59
2022/09/27 07:17:45;;;;;;;2.53;2.28;;;;;;;;;;616700;231;26602;-59
2022/09/27 07:20:14;;;;;;;2.83;2.10;;;;;;;;;;615359;231;26618;-60
2022/09/27 07:22:44;;;;;;;2.80;2.60;;;;;;;;;;614523;231;26788;-60
2022/09/27 07:25:12;;;;;;;2.58;2.37;;;;;;;;;;616740;226;26595;-60
2022/09/27 07:27:41;;;;;;;2.92;2.40;;;;;;;;;;615531;230;26576;-60
2022/09/27 07:30:11;;;;;;;4.45;2.40;;;;;;;;;;618978;230;26569;-59
2022/09/27 07:32:39;;;;;;;4.62;2.30;;;;;;;;;;617312;230;26579;-60
2022/09/27 07:35:08;;;;;;;3.62;2.60;;;;;;;;;;615901;231;27104;-59
2022/09/27 07:37:37;;;;;;;4.53;2.30;;;;;;;;;;615027;231;26831;-59
2022/09/27 07:40:08;;;;;;;2.50;2.30;;;;;;;;;;615030;234;26572;-59
2022/09/27 07:42:37;;;;;;;2.15;1.98;;;;;;;;;;615529;231;26564;-59
2022/09/27 07:45:05;;;;;;;7.70;2.87;;;;;;;;;;622064;231;26814;-60
2022/09/27 07:47:36;;;;;;;8.55;3.10;;;;;;;;;;616598;231;26629;-60
2022/09/27 07:50:04;;;;;;;11.85;3.62;;;;;;;;;;613185;231;26864;-59
2022/09/27 07:52:31;;;;;;;7.30;3.35;;;;;;;;;;619269;231;26828;-59
2022/09/27 07:55:00;;;;;;;3.33;2.12;;;;;;;;;;612957;231;26561;-59
2022/09/27 07:57:29;;;;;;;3.17;2.30;;;;;;;;;;617628;231;26606;-59
2022/09/27 07:59:58;;;;;;;3.47;2.50;;;;;;;;;;614170;231;26566;-59
2022/09/27 08:02:27;;;;;;;3.12;2.83;;;;;;;;;;619615;231;26607;-59
2022/09/27 08:04:56;;;;;;;2.78;2.50;;;;;;;;;;613658;234;26811;-60
2022/09/27 08:07:25;;;;;;;2.62;2.42;;;;;;;;;;619099;229;26823;-59
2022/09/27 08:09:54;;;;;;;3.70;2.55;;;;;;;;;;615824;231;26582;-60
2022/09/27 08:12:23;;;;;;;3.30;2.90;;;;;;;;;;620677;231;26797;-59
2022/09/27 08:14:52;;;;;;;3.28;3.08;;;;;;;;;;614380;233;26600;-59
2022/09/27 08:17:21;;;;;;;3.78;3.05;;;;;;;;;;614550;233;26638;-60
2022/09/27 08:19:49;;;;;;;3.72;3.20;;;;;;;;;;615296;233;26579;-60
2022/09/27 08:22:20;;;;;;;2.15;2.03;;;;;;;;;;613544;233;26661;-60
2022/09/27 08:24:47;;;;;;;3.30;3.00;;;;;;;;;;615101;233;26578;-59
2022/09/27 08:27:16;;;;;;;3.75;3.45;;;;;;;;;;614413;233;26632;-59
2022/09/27 08:29:46;;;;;;;2.40;2.20;;;;;;;;;;613662;233;26952;-60
2022/09/27 08:32:14;;;;;;;4.03;3.67;;;;;;;;;;615678;230;26561;-60
2022/09/27 08:34:43;;;;;;;3.10;2.90;;;;;;;;;;617025;230;26798;-60
2022/09/27 08:37:12;;;;;;;3.80;3.50;;;;;;;;;;615964;231;26623;-60
2022/09/27 08:39:41;;;;;;;3.00;2.75;;;;;;;;;;614858;231;26544;-60
2022/09/27 08:42:12;;;;;;;30.73;8.48;;;;;;;;;;621883;230;27275;-59
2022/09/27 08:44:41;;;;;;;744.53;86.68;;;;;;;;;;612914;234;26600;-59
2022/09/27 08:47:11;;;;;;;1999.90;537.08;;;;;;;;;;613880;234;26546;-59
2022/09/27 08:49:40;;;;;;;1999.90;812.00;;;;;;;;;;619032;231;26778;-60
2022/09/27 08:52:12;;;;;;;1987.88;176.85;;;;;;;;;;613847;228;26622;-58
2022/09/27 08:54:41;;;;;;;74.85;12.73;;;;;;;;;;618659;231;26879;-60
2022/09/27 08:57:10;;;;;;;15.85;7.30;;;;;;;;;;613697;231;26589;-61
2022/09/27 08:59:40;;;;;;;13.62;5.65;;;;;;;;;;618196;230;26582;-60
2022/09/27 09:02:09;;;;;;;15.88;7.20;;;;;;;;;;617772;231;26618;-60
2022/09/27 09:04:38;;;;;;;20.17;8.93;;;;;;;;;;612500;233;26587;-61
2022/09/27 09:07:08;;;;;;;18.98;9.82;;;;;;;;;;613815;234;26889;-61
2022/09/27 09:09:36;;;;;;;29.45;11.55;;;;;;;;;;614713;231;26565;-59
2022/09/27 09:14:59;;;;;;;12.95;6.50;;;;;;;;;;614394;231;26591;-60
2022/09/27 09:17:35;;;;;;;9.05;5.75;;;;;;;;;;613147;234;26806;-60
2022/09/27 09:20:05;;;;;;;10.45;5.78;;;;;;;;;;616052;231;26849;-60
2022/09/27 09:22:47;;;;;;;5.18;3.95;;;;;;;;;;613772;233;26588;-60
2022/09/27 09:25:21;;;;;;;10.70;5.55;;;;;;;;;;618791;230;26768;-60
2022/09/27 09:27:50;;;;;;;9.20;5.30;;;;;;;;;;615538;231;26567;-60
2022/09/27 09:30:19;;;;;;;9.55;4.60;;;;;;;;;;619793;230;26952;-63
2022/09/27 09:33:05;;;;;;;9.70;5.30;;;;;;;;;;618321;230;26612;-61
2022/09/27 09:35:34;;;;;;;8.45;5.28;;;;;;;;;;616228;230;26663;-61
2022/09/27 09:38:02;;;;;;;6.87;4.82;;;;;;;;;;616328;230;26612;-60
2022/09/27 09:40:31;;;;;;;7.37;5.68;;;;;;;;;;614327;233;26667;-60
2022/09/27 09:43:00;;;;;;;7.07;5.18;;;;;;;;;;614087;231;26600;-61
2022/09/27 09:45:29;;;;;;;6.75;4.72;;;;;;;;;;614497;233;26560;-60
2022/09/27 09:48:01;;;;;;;9.68;4.97;;;;;;;;;;613297;233;26811;-60
2022/09/27 09:50:46;;;;;;;6.60;4.60;;;;;;;;;;620751;231;26558;-60
2022/09/27 09:53:21;;;;;;;8.23;4.80;;;;;;;;;;616928;231;26580;-60
2022/09/27 09:55:50;;;;;;;5.18;4.57;;;;;;;;;;619041;231;26538;-60
2022/09/27 09:58:20;;;;;;;5.45;4.45;;;;;;;;;;616602;231;26846;-60
2022/09/27 10:00:48;;;;;;;4.75;3.92;;;;;;;;;;621659;231;26579;-60
2022/09/27 10:03:18;;;;;;;5.35;4.47;;;;;;;;;;618150;231;26825;-61
2022/09/27 10:05:46;;;;;;;4.43;4.00;;;;;;;;;;614901;234;26567;-60
2022/09/27 10:08:14;;;;;;;4.90;3.90;;;;;;;;;;619860;231;26632;-61
2022/09/27 10:10:43;;;;;;;5.65;4.05;;;;;;;;;;613213;234;26536;-61
2022/09/27 10:13:14;;;;;;;4.20;3.90;;;;;;;;;;615280;232;26581;-60
2022/09/27 10:15:43;;;;;;;5.65;5.07;;;;;;;;;;613348;233;26556;-60
2022/09/27 10:18:12;;;;;;;5.93;4.20;;;;;;;;;;614869;234;27224;-60
2022/09/27 10:20:41;;;;;;;5.53;4.30;;;;;;;;;;615547;231;26629;-61
2022/09/27 10:23:13;;;;;;;4.80;3.80;;;;;;;;;;614381;231;26597;-61
2022/09/27 10:25:44;;;;;;;4.03;3.72;;;;;;;;;;622875;231;26838;-61
2022/09/27 10:28:19;;;;;;;9.80;4.43;;;;;;;;;;619388;231;26617;-57
2022/09/27 10:30:49;;;;;;;8.88;4.40;;;;;;;;;;621145;229;26610;-58
2022/09/27 10:33:18;;;;;;;7.05;4.03;;;;;;;;;;621658;231;26833;-58
2022/09/27 10:35:49;;;;;;;5.90;4.37;;;;;;;;;;622351;231;26597;-59
2022/09/27 10:38:21;;;;;;;6.03;3.97;;;;;;;;;;622078;231;26805;-59
2022/09/27 10:40:49;;;;;;;6.40;4.37;;;;;;;;;;621894;231;26594;-59
2022/09/27 10:43:23;;;;;;;4.82;4.43;;;;;;;;;;621463;231;26607;-59
2022/09/27 10:46:04;;;;;;;4.68;4.28;;;;;;;;;;621671;231;26626;-59
2022/09/27 10:48:32;;;;;;;8.18;5.65;;;;;;;;;;621718;231;26586;-59
2022/09/27 10:51:04;;;;;;;7.05;5.50;;;;;;;;;;621361;231;26797;-58
2022/09/27 10:53:33;;;;;;;4.85;4.45;;;;;;;;;;621432;231;26912;-59
2022/09/27 10:56:02;;;;;;;4.80;4.07;;;;;;;;;;621415;231;26614;-59
2022/09/27 10:58:31;;;;;;;8.75;4.25;;;;;;;;;;621429;231;26575;-58
2022/09/27 11:01:02;;;;;;;4.65;4.25;;;;;;;;;;620553;226;26569;-59
2022/09/27 11:03:29;;;;;;;6.95;4.62;;;;;;;;;;615255;231;26560;-59
2022/09/27 11:05:58;;;;;;;5.03;4.62;;;;;;;;;;613329;231;26838;-59
2022/09/27 11:08:28;;;;;;;5.75;5.28;;;;;;;;;;613094;231;26572;-59
2022/09/27 11:10:59;;;;;;;7.90;7.10;;;;;;;;;;614547;231;26654;-60
2022/09/27 11:13:31;;;;;;;6.07;5.32;;;;;;;;;;615433;234;26867;-58
2022/09/27 11:16:18;;;;;;;5.05;4.40;;;;;;;;;;615466;234;26567;-59
2022/09/27 11:18:47;;;;;;;6.05;5.45;;;;;;;;;;605082;233;26628;-59
2022/09/27 11:21:18;;;;;;;5.50;5.00;;;;;;;;;;614961;234;26569;-58
2022/09/27 11:23:52;;;;;;;6.75;5.50;;;;;;;;;;613261;234;26814;-59
2022/09/27 11:26:37;;;;;;;7.93;6.20;;;;;;;;;;615118;234;27287;-58
2022/09/27 11:29:11;;;;;;;9.65;6.37;;;;;;;;;;613851;234;27182;-59
2022/09/27 11:31:41;;;;;;;4.47;4.07;;;;;;;;;;615299;234;26545;-59
2022/09/27 11:34:28;;;;;;;6.85;5.93;;;;;;;;;;615646;234;26621;-59
2022/09/27 11:36:58;;;;;;;4.70;4.30;;;;;;;;;;615392;234;26540;-59
2022/09/27 11:39:28;;;;;;;6.28;5.68;;;;;;;;;;615431;234;26537;-59
2022/09/27 11:42:00;;;;;;;4.78;3.97;;;;;;;;;;615400;231;26548;-59
2022/09/27 11:44:31;;;;;;;6.60;5.87;;;;;;;;;;616519;233;26628;-59
2022/09/27 11:47:02;;;;;;;5.12;4.68;;;;;;;;;;616249;233;26646;-61
2022/09/27 11:49:37;;;;;;;5.87;5.25;;;;;;;;;;616053;233;26658;-59
2022/09/27 11:52:11;;;;;;;6.43;4.70;;;;;;;;;;615710;233;26578;-59
2022/09/27 11:54:40;;;;;;;5.43;4.47;;;;;;;;;;615561;233;26798;-59
2022/09/27 11:57:11;;;;;;;6.00;5.32;;;;;;;;;;615588;233;26567;-59
2022/09/27 11:59:42;;;;;;;5.60;4.57;;;;;;;;;;615941;233;26568;-58
2022/09/27 12:02:15;;;;;;;6.45;4.70;;;;;;;;;;612619;233;26548;-59
2022/09/27 12:05:03;;;;;;;4.78;4.35;;;;;;;;;;612650;232;26583;-59
2022/09/27 12:07:37;;;;;;;4.90;4.45;;;;;;;;;;605216;233;26597;-59
2022/09/27 12:10:08;;;;;;;4.50;4.10;;;;;;;;;;612709;234;26537;-59
2022/09/27 12:12:37;;;;;;;4.12;3.83;;;;;;;;;;613092;234;26844;-59
2022/09/27 12:15:11;;;;;;;4.25;3.95;;;;;;;;;;613131;234;26543;-59
2022/09/27 12:17:41;;;;;;;6.90;4.07;;;;;;;;;;613072;234;26533;-59
2022/09/27 12:20:09;;;;;;;3.95;3.65;;;;;;;;;;612739;235;26568;-59
2022/09/27 12:22:39;;;;;;;3.72;3.33;;;;;;;;;;612302;235;26576;-59
2022/09/27 12:25:08;;;;;;;3.90;3.60;;;;;;;;;;612589;235;27019;-59
2022/09/27 12:27:37;;;;;;;5.10;3.30;;;;;;;;;;612490;235;26588;-59
2022/09/27 12:30:06;;;;;;;3.78;3.47;;;;;;;;;;612703;235;26805;-59
2022/09/27 12:32:37;;;;;;;3.40;3.10;;;;;;;;;;612789;234;26829;-59
2022/09/27 12:35:09;;;;;;;4.32;3.47;;;;;;;;;;612332;235;26633;-59
2022/09/27 12:37:35;;;;;;;3.42;3.22;;;;;;;;;;611882;235;26834;-59
2022/09/27 12:40:05;;;;;;;3.28;3.08;;;;;;;;;;612286;235;26567;-59
2022/09/27 12:42:36;;;;;;;4.05;2.90;;;;;;;;;;612269;235;26593;-59
2022/09/27 12:45:05;;;;;;;3.25;2.65;;;;;;;;;;612354;228;26568;-59
2022/09/27 12:47:39;;;;;;;3.05;2.80;;;;;;;;;;612449;234;26639;-59
2022/09/27 12:50:11;;;;;;;3.17;2.87;;;;;;;;;;611913;235;26611;-59
2022/09/27 12:52:41;;;;;;;2.80;2.60;;;;;;;;;;612031;235;26662;-59
2022/09/27 12:55:15;;;;;;;2.97;2.78;;;;;;;;;;613662;232;26844;-59
2022/09/27 12:57:43;;;;;;;4.07;2.83;;;;;;;;;;613305;234;26817;-59
2022/09/27 13:00:13;;;;;;;2.70;2.50;;;;;;;;;;612944;234;26572;-59
2022/09/27 13:02:44;;;;;;;2.20;2.10;;;;;;;;;;613155;234;26782;-59
2022/09/27 13:05:29;;;;;;;3.25;2.87;;;;;;;;;;612654;234;26646;-59
2022/09/27 13:07:59;;;;;;;2.42;2.22;;;;;;;;;;612780;235;26604;-59
2022/09/27 13:10:37;;;;;;;3.00;2.60;;;;;;;;;;612583;234;26830;-59
2022/09/27 13:13:08;;;;;;;3.00;2.67;;;;;;;;;;612698;234;26608;-61
2022/09/27 13:15:38;;;;;;;4.45;2.42;;;;;;;;;;612704;230;26836;-60
2022/09/27 13:18:06;;;;;;;4.80;2.70;;;;;;;;;;615091;230;26632;-59
2022/09/27 13:20:37;;;;;;;2.42;2.22;;;;;;;;;;615904;230;26872;-59
2022/09/27 13:23:22;;;;;;;2.55;2.35;;;;;;;;;;613777;231;26666;-59
2022/09/27 13:25:51;;;;;;;3.08;2.37;;;;;;;;;;611293;233;26640;-59
2022/09/27 13:28:35;;;;;;;4.10;2.85;;;;;;;;;;615660;231;26663;-59
2022/09/27 13:31:05;;;;;;;4.30;3.00;;;;;;;;;;618548;231;26580;-59
2022/09/27 13:33:42;;;;;;;1.98;1.87;;;;;;;;;;614022;234;26827;-59
2022/09/27 13:36:19;;;;;;;3.55;2.45;;;;;;;;;;616919;231;26588;-59
2022/09/27 13:39:04;;;;;;;2.78;2.15;;;;;;;;;;616599;231;26603;-59
2022/09/27 13:41:34;;;;;;;5.80;3.25;;;;;;;;;;616307;231;26622;-59
2022/09/27 13:44:05;;;;;;;3.50;2.20;;;;;;;;;;614364;234;26635;-59
2022/09/27 13:46:32;;;;;;;3.20;2.20;;;;;;;;;;619017;231;26642;-59
2022/09/27 13:49:01;;;;;;;6.28;3.40;;;;;;;;;;613619;234;26578;-59
2022/09/27 13:51:36;;;;;;;3.15;2.00;;;;;;;;;;614110;233;26548;-60
2022/09/27 13:54:05;;;;;;;2.60;2.00;;;;;;;;;;616093;231;26783;-60
2022/09/27 13:56:51;;;;;;;6.12;2.20;;;;;;;;;;613217;231;26576;-60
2022/09/27 13:59:19;;;;;;;5.10;3.10;;;;;;;;;;614266;234;27294;-60
2022/09/27 14:01:48;;;;;;;2.25;2.05;;;;;;;;;;614183;234;26633;-60
2022/09/27 14:04:18;;;;;;;2.65;2.10;;;;;;;;;;613037;234;26852;-60
2022/09/27 14:06:46;;;;;;;4.80;2.15;;;;;;;;;;622820;229;26838;-59
2022/09/27 14:09:31;;;;;;;1.90;1.80;;;;;;;;;;623243;230;26603;-59
2022/09/27 14:11:59;;;;;;;5.87;1.95;;;;;;;;;;616645;230;26580;-59
2022/09/27 14:14:28;;;;;;;3.15;2.20;;;;;;;;;;620707;231;26585;-60
2022/09/27 14:16:57;;;;;;;2.53;1.95;;;;;;;;;;613792;233;26595;-59
2022/09/27 14:19:26;;;;;;;5.40;2.40;;;;;;;;;;618685;231;27111;-59
2022/09/27 14:21:55;;;;;;;4.47;2.25;;;;;;;;;;616044;230;26598;-59
2022/09/27 14:24:34;;;;;;;4.70;2.33;;;;;;;;;;614997;233;26868;-59
2022/09/27 14:27:05;;;;;;;2.80;2.15;;;;;;;;;;614285;233;26856;-59
2022/09/27 14:29:34;;;;;;;5.82;2.20;;;;;;;;;;612685;233;26536;-59
2022/09/27 14:32:03;;;;;;;4.05;2.12;;;;;;;;;;617474;231;26796;-59
2022/09/27 14:34:32;;;;;;;4.68;2.05;;;;;;;;;;614044;230;26593;-59
2022/09/27 14:39:36;;;;;;;2.80;2.10;;;;;;;;;;614238;233;26608;-59
2022/09/27 14:42:05;;;;;;;1.90;1.80;;;;;;;;;;618781;231;26583;-59
2022/09/27 14:44:34;;;;;;;2.17;1.83;;;;;;;;;;621557;231;26869;-59
2022/09/27 14:47:08;;;;;;;2.03;1.70;;;;;;;;;;613317;234;26575;-59
2022/09/27 14:49:36;;;;;;;2.05;1.77;;;;;;;;;;618823;231;26765;-59
2022/09/27 14:52:05;;;;;;;4.90;2.03;;;;;;;;;;614554;231;26595;-60
2022/09/27 14:54:34;;;;;;;5.43;1.77;;;;;;;;;;614818;234;26848;-59
2022/09/27 14:57:03;;;;;;;2.25;1.90;;;;;;;;;;613778;234;26545;-59
2022/09/27 14:59:33;;;;;;;2.33;1.75;;;;;;;;;;618280;231;26532;-59
2022/09/27 15:02:00;;;;;;;1.87;1.55;;;;;;;;;;616125;231;26615;-59
2022/09/27 15:04:30;;;;;;;4.00;2.00;;;;;;;;;;617668;231;26596;-59
2022/09/27 15:06:58;;;;;;;2.47;1.60;;;;;;;;;;621171;231;26626;-59
2022/09/27 15:09:27;;;;;;;1.75;1.65;;;;;;;;;;613087;231;26573;-59
2022/09/27 15:11:56;;;;;;;3.22;1.80;;;;;;;;;;613958;234;26811;-59
2022/09/27 15:14:28;;;;;;;4.55;2.08;;;;;;;;;;619558;231;26611;-59
2022/09/27 15:16:53;;;;;;;2.62;1.67;;;;;;;;;;613813;232;26793;-59
2022/09/27 15:19:24;;;;;;;2.95;1.80;;;;;;;;;;616632;230;26769;-59
2022/09/27 15:21:52;;;;;;;3.65;1.75;;;;;;;;;;620716;228;27268;-60
2022/09/27 15:24:27;;;;;;;2.17;1.80;;;;;;;;;;615253;230;26593;-60
2022/09/27 15:26:57;;;;;;;1.98;1.65;;;;;;;;;;614669;233;26820;-59